Time;durP1;ratioP1;P1;durP2;ratioP2;P2;SDS_P1;SDS_P2;PMS_P1;PMS_P2;Temp;Humidity;BMP_temperature;BMP_pressure;BME280_temperature;BME280_humidity;BME280_pressure;Samples;Min_cycle;Max_cycle;Signal;HPM_P1;HPM_P2
2023/08/24 00:00:07;;;;;;;6.60;3.80;;;;;;;16.21;100.00;100957.50;702361;28;2475;-63
2023/08/24 00:00:27;;;;;;;6.03;3.60;;;;;;;16.21;100.00;100959.28;704814;28;1255;-63
2023/08/24 00:00:48;;;;;;;6.70;3.72;;;;;;;16.19;100.00;100958.47;703099;27;4279;-63
2023/08/24 00:01:09;;;;;;;7.53;4.10;;;;;;;16.17;100.00;100961.13;702225;28;1505;-63
2023/08/24 00:01:30;;;;;;;6.57;3.95;;;;;;;16.17;100.00;100961.13;704490;28;1146;-63
2023/08/24 00:01:51;;;;;;;6.53;3.90;;;;;;;16.17;100.00;100958.47;701160;28;1914;-64
2023/08/24 00:02:12;;;;;;;6.27;3.80;;;;;;;16.15;100.00;100963.78;702349;28;1461;-64
2023/08/24 00:02:32;;;;;;;7.93;4.00;;;;;;;16.15;100.00;100960.31;703622;28;1221;-63
2023/08/24 00:02:53;;;;;;;8.43;4.00;;;;;;;16.13;100.00;100959.47;702668;28;884;-64
2023/08/24 00:03:13;;;;;;;7.07;3.92;;;;;;;16.12;100.00;100960.38;700776;28;2397;-63
2023/08/24 00:03:34;;;;;;;6.03;3.80;;;;;;;16.12;100.00;100953.31;703445;27;4389;-65
2023/08/24 00:03:54;;;;;;;5.85;3.90;;;;;;;16.12;100.00;100955.97;703262;28;1161;-64
2023/08/24 00:04:15;;;;;;;7.33;4.23;;;;;;;16.10;100.00;100960.41;703636;28;1220;-63
2023/08/24 00:04:35;;;;;;;7.20;4.10;;;;;;;16.11;100.00;100962.13;704328;28;1169;-63
2023/08/24 00:04:56;;;;;;;5.70;3.73;;;;;;;16.16;100.00;100956.78;704221;28;860;-63
2023/08/24 00:05:16;;;;;;;6.60;3.78;;;;;;;16.16;100.00;100956.78;702701;28;2392;-64
2023/08/24 00:05:38;;;;;;;6.78;3.90;;;;;;;16.13;100.00;100959.47;701987;28;903;-64
2023/08/24 00:05:58;;;;;;;6.18;4.10;;;;;;;16.12;100.00;100955.97;701431;28;1246;-64
2023/08/24 00:06:19;;;;;;;7.00;4.63;;;;;;;16.10;100.00;100960.41;700272;28;1751;-63
2023/08/24 00:06:39;;;;;;;6.85;4.70;;;;;;;16.10;100.00;100956.91;703325;28;4723;-64
2023/08/24 00:07:00;;;;;;;6.20;4.00;;;;;;;16.11;100.00;100956.84;704202;28;1108;-63
2023/08/24 00:07:20;;;;;;;6.53;3.92;;;;;;;16.12;100.00;100957.75;699959;28;1469;-63
2023/08/24 00:07:41;;;;;;;7.13;4.33;;;;;;;16.12;100.00;100958.59;701070;28;1152;-63
2023/08/24 00:08:01;;;;;;;7.07;3.90;;;;;;;16.11;100.00;100956.00;700268;28;1380;-64
2023/08/24 00:08:22;;;;;;;5.75;3.78;;;;;;;16.09;100.00;100957.78;701922;28;1404;-63
2023/08/24 00:08:43;;;;;;;6.77;3.83;;;;;;;16.09;100.00;100952.50;702071;28;1127;-64
2023/08/24 00:09:05;;;;;;;6.45;3.92;;;;;;;16.08;100.00;100956.94;703394;28;2538;-64
2023/08/24 00:09:26;;;;;;;5.95;3.97;;;;;;;16.07;100.00;100959.59;703786;28;1209;-64
2023/08/24 00:09:47;;;;;;;6.78;4.15;;;;;;;16.07;100.00;100959.59;703699;28;4577;-63
2023/08/24 00:10:08;;;;;;;6.90;4.30;;;;;;;16.05;100.00;100962.28;702512;28;2355;-64
2023/08/24 00:10:29;;;;;;;6.20;3.90;;;;;;;16.05;100.00;100959.66;703387;28;1336;-63
2023/08/24 00:10:49;;;;;;;6.40;4.03;;;;;;;16.07;100.00;100959.59;704419;28;1400;-64
2023/08/24 00:11:14;;;;;;;7.30;3.73;;;;;;;16.07;100.00;100967.53;703068;28;1883;-64
2023/08/24 00:11:35;;;;;;;5.63;3.83;;;;;;;16.09;100.00;100955.16;703413;28;1198;-64
2023/08/24 00:11:55;;;;;;;5.50;3.70;;;;;;;16.11;100.00;100961.28;703321;28;1138;-63
2023/08/24 00:12:15;;;;;;;5.72;3.72;;;;;;;16.11;100.00;100956.00;703155;28;1527;-65
2023/08/24 00:12:36;;;;;;;7.90;3.77;;;;;;;16.11;100.00;100954.22;704049;28;4624;-63
2023/08/24 00:12:56;;;;;;;6.63;3.83;;;;;;;16.12;100.00;100957.75;704251;28;1138;-64
2023/08/24 00:13:17;;;;;;;6.93;3.97;;;;;;;16.09;100.00;100963.94;702542;28;1242;-64
2023/08/24 00:13:38;;;;;;;7.30;3.90;;;;;;;16.10;100.00;100957.78;703729;28;1237;-64
2023/08/24 00:13:58;;;;;;;7.10;4.23;;;;;;;16.06;100.00;100958.75;704682;28;914;-63
2023/08/24 00:14:19;;;;;;;6.35;4.25;;;;;;;16.05;100.00;100957.00;703021;28;1472;-63
2023/08/24 00:14:39;;;;;;;6.03;4.20;;;;;;;16.04;100.00;100957.06;704195;28;1133;-64
2023/08/24 00:15:00;;;;;;;7.43;4.20;;;;;;;16.02;100.00;100956.19;702622;28;1166;-63
2023/08/24 00:15:20;;;;;;;7.37;3.93;;;;;;;16.04;100.00;100967.59;702149;28;2397;-64
2023/08/24 00:15:41;;;;;;;5.55;3.90;;;;;;;16.04;100.00;100957.91;698966;28;4682;-63
2023/08/24 00:16:02;;;;;;;5.68;3.85;;;;;;;16.04;100.00;100955.28;699043;28;1721;-65
2023/08/24 00:16:22;;;;;;;5.37;3.83;;;;;;;16.03;100.00;100960.59;699956;28;3503;-64
2023/08/24 00:16:42;;;;;;;6.07;4.10;;;;;;;16.01;100.00;100952.72;701451;28;1158;-64
2023/08/24 00:17:06;;;;;;;6.37;4.10;;;;;;;16.02;100.00;100956.19;702671;28;1523;-64
2023/08/24 00:17:26;;;;;;;6.80;4.03;;;;;;;16.00;100.00;100961.50;701682;28;1162;-64
2023/08/24 00:17:47;;;;;;;6.63;4.07;;;;;;;16.00;100.00;100958.88;702811;28;1431;-64
2023/08/24 00:18:07;;;;;;;6.43;4.05;;;;;;;15.98;100.00;100958.06;702873;28;2207;-64
2023/08/24 00:18:28;;;;;;;8.03;4.30;;;;;;;15.98;100.00;100958.91;702941;28;1193;-64
2023/08/24 00:18:48;;;;;;;7.63;4.22;;;;;;;16.03;100.00;100956.16;696302;28;4439;-64
2023/08/24 00:19:09;;;;;;;6.90;4.13;;;;;;;16.03;100.00;100963.22;696982;28;1907;-63
2023/08/24 00:19:29;;;;;;;6.93;4.25;;;;;;;16.04;100.00;100954.41;697126;28;1301;-63
2023/08/24 00:19:49;;;;;;;6.63;4.13;;;;;;;16.04;100.00;100957.91;697041;28;1378;-63
2023/08/24 00:20:13;;;;;;;6.40;3.90;;;;;;;16.04;100.00;100957.91;700410;28;1865;-63
2023/08/24 00:20:33;;;;;;;5.57;3.90;;;;;;;16.04;100.00;100950.00;702449;28;1221;-64
2023/08/24 00:20:54;;;;;;;5.88;3.92;;;;;;;16.03;100.00;100957.94;703853;28;1233;-63
2023/08/24 00:21:22;;;;;;;6.03;3.90;;;;;;;15.99;100.00;100955.38;702894;28;1047;-64
2023/08/24 00:21:42;;;;;;;7.50;3.80;;;;;;;16.04;100.00;100962.31;702463;28;4439;-64
2023/08/24 00:22:03;;;;;;;6.95;3.72;;;;;;;16.05;100.00;100964.94;701992;28;1917;-63
2023/08/24 00:22:24;;;;;;;5.95;4.00;;;;;;;16.05;100.00;100956.13;703713;28;1277;-64
2023/08/24 00:22:47;;;;;;;7.67;4.10;;;;;;;16.05;100.00;100957.00;703011;28;1341;-64
2023/08/24 00:23:08;;;;;;;6.85;3.80;;;;;;;16.04;100.00;100962.31;699802;28;1389;-64
2023/08/24 00:23:28;;;;;;;6.93;4.00;;;;;;;16.06;100.00;100964.03;702475;28;1352;-64
2023/08/24 00:23:49;;;;;;;7.30;4.20;;;;;;;16.05;100.00;100958.75;703514;28;1193;-63
2023/08/24 00:24:10;;;;;;;6.68;4.40;;;;;;;16.04;100.00;100957.06;702862;28;2236;-63
2023/08/24 00:24:30;;;;;;;7.67;4.13;;;;;;;16.02;100.00;100962.38;704459;28;1443;-63
2023/08/24 00:24:51;;;;;;;7.38;4.10;;;;;;;16.02;100.00;100958.84;703189;28;4554;-64
2023/08/24 00:25:12;;;;;;;6.60;4.00;;;;;;;15.99;100.00;100958.03;702401;28;1758;-63
2023/08/24 00:25:32;;;;;;;6.43;4.00;;;;;;;15.99;100.00;100963.28;703176;28;1188;-63
2023/08/24 00:25:52;;;;;;;6.53;4.10;;;;;;;16.00;100.00;100958.88;704115;28;1304;-63
2023/08/24 00:26:13;;;;;;;5.78;4.10;;;;;;;16.01;100.00;100960.63;703105;28;1461;-63
2023/08/24 00:26:34;;;;;;;6.17;4.10;;;;;;;16.00;100.00;100959.75;704595;28;1276;-63
2023/08/24 00:26:55;;;;;;;5.38;4.05;;;;;;;15.98;100.00;100955.44;701321;28;1337;-64
2023/08/24 00:27:15;;;;;;;6.80;4.10;;;;;;;15.96;100.00;100965.13;699557;28;2340;-63
2023/08/24 00:27:36;;;;;;;6.77;4.23;;;;;;;15.94;100.00;100957.25;699011;28;4465;-63
2023/08/24 00:27:56;;;;;;;6.00;3.90;;;;;;;15.97;100.00;100957.19;700239;28;1181;-63
2023/08/24 00:28:18;;;;;;;6.00;3.92;;;;;;;15.97;100.00;100959.81;699163;28;1559;-64
2023/08/24 00:28:41;;;;;;;6.68;4.28;;;;;;;15.93;100.00;100955.50;701938;28;1178;-63
2023/08/24 00:29:01;;;;;;;6.65;4.20;;;;;;;15.92;100.00;100956.44;700897;28;1186;-63
2023/08/24 00:29:22;;;;;;;5.65;3.88;;;;;;;15.91;100.00;100956.44;701199;28;2448;-63
2023/08/24 00:29:43;;;;;;;6.68;3.95;;;;;;;15.89;100.00;100953.84;698008;28;1173;-63
2023/08/24 00:30:06;;;;;;;7.78;3.85;;;;;;;15.89;100.00;100951.19;695426;28;1770;-64
2023/08/24 00:30:26;;;;;;;6.78;4.20;;;;;;;15.88;100.00;100949.50;697717;28;1169;-63
2023/08/24 00:30:47;;;;;;;5.90;3.70;;;;;;;15.86;100.00;100951.28;697875;28;4378;-63
2023/08/24 00:31:07;;;;;;;6.10;3.70;;;;;;;15.87;100.00;100954.78;698934;28;1759;-64
2023/08/24 00:31:30;;;;;;;6.33;4.00;;;;;;;15.85;100.00;100954.81;701565;28;1256;-63
2023/08/24 00:31:50;;;;;;;5.97;3.80;;;;;;;15.82;100.00;100950.50;703451;28;881;-63
2023/08/24 00:32:11;;;;;;;5.40;3.70;;;;;;;15.81;100.00;100948.75;701110;28;1617;-64
2023/08/24 00:32:34;;;;;;;7.22;3.95;;;;;;;15.81;100.00;100951.41;703804;28;1261;-63
2023/08/24 00:32:54;;;;;;;7.28;4.03;;;;;;;15.81;100.00;100951.41;702441;28;836;-63
2023/08/24 00:33:15;;;;;;;6.00;4.00;;;;;;;15.80;100.00;100947.00;698127;28;1821;-64
2023/08/24 00:33:36;;;;;;;5.77;4.10;;;;;;;15.80;100.00;100951.44;700228;28;4319;-63
2023/08/24 00:33:56;;;;;;;5.28;3.90;;;;;;;15.81;100.00;100946.13;699932;28;1372;-63
2023/08/24 00:34:19;;;;;;;5.95;3.78;;;;;;;15.82;100.00;100942.59;698755;28;1553;-64
2023/08/24 00:34:39;;;;;;;7.35;4.18;;;;;;;15.81;100.00;100946.13;703351;28;1127;-63
2023/08/24 00:35:02;;;;;;;7.17;4.13;;;;;;;15.81;100.00;100951.41;703471;28;1189;-63
2023/08/24 00:35:22;;;;;;;7.18;3.67;;;;;;;15.79;100.00;100950.53;702625;28;1219;-64
2023/08/24 00:35:46;;;;;;;6.33;3.57;;;;;;;15.80;100.00;100954.06;701030;28;1163;-63
2023/08/24 00:36:06;;;;;;;6.70;3.63;;;;;;;15.79;100.00;100949.66;700202;28;1842;-64
2023/08/24 00:36:27;;;;;;;5.97;3.90;;;;;;;15.77;100.00;100948.81;700185;28;1300;-63
2023/08/24 00:36:48;;;;;;;5.20;3.70;;;;;;;15.77;100.00;100954.97;702600;28;4531;-64
2023/08/24 00:37:08;;;;;;;6.27;4.03;;;;;;;15.77;100.00;100954.97;700106;28;1915;-63
2023/08/24 00:37:29;;;;;;;6.87;3.60;;;;;;;15.77;100.00;100954.97;700660;28;1289;-64
2023/08/24 00:37:53;;;;;;;6.88;3.78;;;;;;;15.77;100.00;100948.81;700794;28;1305;-64
2023/08/24 00:38:13;;;;;;;6.50;3.80;;;;;;;15.78;100.00;100955.81;699419;28;1426;-63
2023/08/24 00:38:34;;;;;;;6.70;3.60;;;;;;;15.78;100.00;100955.81;697201;28;1135;-63
2023/08/24 00:38:54;;;;;;;5.78;3.80;;;;;;;15.78;100.00;100959.34;694046;28;1397;-64
2023/08/24 00:39:16;;;;;;;6.07;3.93;;;;;;;15.79;100.00;100957.56;695032;28;1771;-64
2023/08/24 00:39:37;;;;;;;5.90;3.83;;;;;;;15.80;100.00;100952.28;697716;28;4338;-64
2023/08/24 00:40:04;;;;;;;5.57;3.60;;;;;;;15.80;100.00;100951.44;694766;28;1164;-64
2023/08/24 00:40:27;;;;;;;6.32;3.70;;;;;;;15.79;100.00;100954.94;699011;28;1307;-64
2023/08/24 00:40:47;;;;;;;5.45;3.72;;;;;;;15.78;100.00;100953.19;695417;28;1361;-63
2023/08/24 00:41:08;;;;;;;6.82;3.92;;;;;;;15.76;100.00;100955.84;689116;28;2035;-63
2023/08/24 00:41:30;;;;;;;6.95;4.00;;;;;;;15.76;100.00;100950.59;698152;28;1309;-64
2023/08/24 00:41:50;;;;;;;5.60;3.73;;;;;;;15.78;100.00;100954.06;699250;28;1926;-63
2023/08/24 00:42:14;;;;;;;5.38;3.72;;;;;;;15.81;100.00;100953.13;693751;28;1699;-63
2023/08/24 00:42:43;;;;;;;6.15;4.00;;;;;;;15.86;100.00;100959.19;693204;28;4540;-64
2023/08/24 00:43:03;;;;;;;6.05;3.80;;;;;;;15.86;100.00;100951.28;694987;28;1398;-63
2023/08/24 00:43:25;;;;;;;5.70;4.30;;;;;;;15.87;100.00;100947.75;692236;28;1639;-63
2023/08/24 00:43:46;;;;;;;6.28;4.00;;;;;;;15.87;100.00;100952.13;696541;28;1365;-64
2023/08/24 00:44:07;;;;;;;5.45;3.60;;;;;;;15.83;100.00;100952.22;696087;28;1571;-63
2023/08/24 00:44:28;;;;;;;5.88;3.70;;;;;;;15.80;100.00;100948.78;699094;28;1288;-63
2023/08/24 00:44:49;;;;;;;5.50;3.73;;;;;;;15.79;100.00;100947.91;695635;28;1373;-64
2023/08/24 00:45:10;;;;;;;5.40;3.78;;;;;;;15.77;100.00;100948.81;695027;28;1737;-64
2023/08/24 00:45:33;;;;;;;5.70;3.80;;;;;;;15.76;100.00;100950.59;693395;28;1136;-64
2023/08/24 00:46:00;;;;;;;6.30;3.95;;;;;;;15.75;100.00;100943.56;691513;28;6207;-64
2023/08/24 00:46:26;;;;;;;6.13;3.80;;;;;;;15.74;100.00;100941.84;697238;28;2275;-63
2023/08/24 00:46:47;;;;;;;6.00;3.80;;;;;;;15.73;100.00;100948.03;699610;28;1491;-63
2023/08/24 00:47:08;;;;;;;5.57;3.70;;;;;;;15.72;100.00;100942.78;700081;28;1550;-63
2023/08/24 00:47:30;;;;;;;5.55;3.70;;;;;;;15.73;100.00;100947.13;703253;28;1385;-63
2023/08/24 00:47:51;;;;;;;5.27;3.80;;;;;;;15.73;100.00;100947.13;705370;27;1420;-64
2023/08/24 00:48:12;;;;;;;5.70;3.90;;;;;;;15.73;100.00;100944.50;701208;28;2356;-64
2023/08/24 00:48:33;;;;;;;6.15;4.07;;;;;;;15.75;100.00;100942.72;700948;28;4350;-64
2023/08/24 00:48:57;;;;;;;6.80;3.90;;;;;;;15.72;100.00;100935.72;699271;28;1159;-63
2023/08/24 00:49:17;;;;;;;5.72;3.65;;;;;;;15.69;100.00;100943.72;698791;28;1789;-63
2023/08/24 00:49:38;;;;;;;5.85;3.50;;;;;;;15.68;100.00;100943.75;695362;28;1175;-63
2023/08/24 00:50:00;;;;;;;6.72;3.78;;;;;;;15.66;100.00;100942.00;699712;28;1166;-64
2023/08/24 00:50:21;;;;;;;7.65;4.00;;;;;;;15.63;100.00;100943.84;699021;28;1758;-64
2023/08/24 00:50:41;;;;;;;6.07;3.83;;;;;;;15.62;100.00;100940.34;700722;28;1205;-63
2023/08/24 00:51:02;;;;;;;6.40;4.20;;;;;;;15.62;100.00;100937.69;701802;28;1181;-64
2023/08/24 00:51:26;;;;;;;5.80;4.00;;;;;;;15.61;100.00;100941.22;702573;27;2685;-64
2023/08/24 00:51:47;;;;;;;5.80;4.25;;;;;;;15.61;100.00;100935.97;705992;27;4520;-63
2023/08/24 00:52:09;;;;;;;6.40;4.00;;;;;;;15.60;100.00;100936.88;702576;27;2784;-66
2023/08/24 00:52:31;;;;;;;6.55;3.90;;;;;;;15.62;100.00;100937.69;699896;28;2105;-64
2023/08/24 00:52:52;;;;;;;7.07;3.88;;;;;;;15.65;100.00;100935.00;698488;28;1254;-63
2023/08/24 00:53:13;;;;;;;6.55;3.90;;;;;;;15.66;100.00;100947.28;697166;28;1146;-64
2023/08/24 00:53:34;;;;;;;6.87;3.90;;;;;;;15.64;100.00;100935.88;698425;28;1130;-64
2023/08/24 00:53:57;;;;;;;6.70;3.90;;;;;;;15.64;100.00;100940.31;698976;28;1056;-63
2023/08/24 00:54:18;;;;;;;6.40;4.00;;;;;;;15.68;100.00;100938.47;696186;28;1696;-63
2023/08/24 00:54:39;;;;;;;5.83;3.80;;;;;;;15.69;100.00;100937.56;695427;28;4425;-63
2023/08/24 00:55:00;;;;;;;5.37;3.80;;;;;;;15.69;100.00;100941.09;698932;28;1239;-64
2023/08/24 00:55:21;;;;;;;6.40;3.88;;;;;;;15.70;100.00;100939.31;696442;28;1625;-63
2023/08/24 00:55:41;;;;;;;6.05;3.92;;;;;;;15.78;100.00;100940.00;701109;28;1162;-64
2023/08/24 00:56:03;;;;;;;6.47;3.87;;;;;;;15.76;100.00;100936.56;701369;28;1191;-63
2023/08/24 00:56:24;;;;;;;6.15;3.67;;;;;;;15.72;100.00;100934.88;699753;28;1478;-64
2023/08/24 00:56:45;;;;;;;6.27;3.83;;;;;;;15.71;100.00;100941.91;701402;28;1178;-63
2023/08/24 00:57:06;;;;;;;5.67;3.83;;;;;;;15.70;100.00;100944.56;698859;28;864;-63
2023/08/24 00:57:29;;;;;;;6.22;3.85;;;;;;;15.65;100.00;100932.34;699802;28;1102;-64
2023/08/24 00:57:51;;;;;;;6.65;3.63;;;;;;;15.63;100.00;100934.19;697784;28;4384;-63
2023/08/24 00:58:13;;;;;;;6.40;3.70;;;;;;;15.63;100.00;100931.53;694836;28;2185;-63
2023/08/24 00:58:35;;;;;;;6.40;3.83;;;;;;;15.64;100.00;100937.66;695841;28;1238;-63
2023/08/24 00:58:56;;;;;;;5.40;3.60;;;;;;;15.64;100.00;100935.03;696707;28;1225;-62
2023/08/24 00:59:16;;;;;;;5.90;3.50;;;;;;;15.60;100.00;100934.25;697274;28;1821;-63
2023/08/24 00:59:37;;;;;;;5.75;3.38;;;;;;;15.58;100.00;100938.66;697401;28;1190;-64
2023/08/24 01:00:11;;;;;;;5.82;3.75;;;;;;;15.60;100.00;100936.88;699258;28;1448;-63
2023/08/24 01:00:32;;;;;;;5.75;3.65;;;;;;;15.65;100.00;100937.63;700591;28;1205;-63
2023/08/24 01:00:54;;;;;;;6.50;3.63;;;;;;;15.63;100.00;100939.44;697855;28;4499;-63
2023/08/24 01:01:14;;;;;;;5.60;3.75;;;;;;;15.64;100.00;100941.16;697712;28;1016;-63
2023/08/24 01:01:35;;;;;;;6.50;3.65;;;;;;;15.63;100.00;100933.28;698352;28;1250;-64
2023/08/24 01:01:56;;;;;;;5.20;3.50;;;;;;;15.62;100.00;100942.13;698346;28;1913;-63
2023/08/24 01:02:16;;;;;;;5.57;3.65;;;;;;;15.63;100.00;100935.94;698896;28;1596;-63
2023/08/24 01:02:38;;;;;;;5.37;4.00;;;;;;;15.61;100.00;100945.66;697890;28;1229;-63
2023/08/24 01:02:58;;;;;;;6.85;3.75;;;;;;;15.55;100.00;100941.38;699354;28;1297;-63
2023/08/24 01:03:21;;;;;;;5.93;3.80;;;;;;;15.53;100.00;100939.66;701117;28;1419;-63
2023/08/24 01:03:42;;;;;;;5.13;3.80;;;;;;;15.55;100.00;100941.38;703352;27;4433;-63
2023/08/24 01:04:03;;;;;;;6.30;4.07;;;;;;;15.57;100.00;100939.56;702510;28;1221;-63
2023/08/24 01:04:23;;;;;;;8.40;4.05;;;;;;;15.58;100.00;100930.75;698208;28;1067;-63
2023/08/24 01:04:46;;;;;;;6.30;3.90;;;;;;;15.57;100.00;100934.28;701820;28;1221;-63
2023/08/24 01:05:07;;;;;;;5.82;3.90;;;;;;;15.58;100.00;100937.81;702369;28;1724;-64
2023/08/24 01:05:28;;;;;;;5.63;3.92;;;;;;;15.56;100.00;100932.56;700993;28;1388;-63
2023/08/24 01:05:49;;;;;;;5.95;3.88;;;;;;;15.55;100.00;100928.19;701438;28;1631;-64
2023/08/24 01:06:09;;;;;;;6.05;3.92;;;;;;;15.56;100.00;100936.97;703613;27;1698;-63
2023/08/24 01:06:31;;;;;;;5.55;3.78;;;;;;;15.57;100.00;100941.34;704470;28;957;-63
2023/08/24 01:06:52;;;;;;;6.68;3.80;;;;;;;15.57;100.00;100930.81;702231;28;4366;-62
2023/08/24 01:07:15;;;;;;;5.70;3.60;;;;;;;15.55;100.00;100932.59;697784;28;1833;-63
2023/08/24 01:07:38;;;;;;;5.93;3.45;;;;;;;15.51;100.00;100931.81;698144;28;1273;-63
2023/08/24 01:08:01;;;;;;;6.55;3.90;;;;;;;15.47;100.00;100936.25;698421;28;1450;-63
2023/08/24 01:08:22;;;;;;;6.53;4.17;;;;;;;15.45;100.00;100929.28;694608;28;1993;-63
2023/08/24 01:08:43;;;;;;;5.70;3.50;;;;;;;15.43;100.00;100929.31;695478;28;1139;-63
2023/08/24 01:09:07;;;;;;;5.67;3.67;;;;;;;15.42;100.00;100929.34;698501;28;1377;-64
2023/08/24 01:09:27;;;;;;;4.90;3.78;;;;;;;15.46;100.00;100936.28;701614;28;1107;-63
2023/08/24 01:09:48;;;;;;;5.90;3.80;;;;;;;15.49;100.00;100925.69;700708;28;4526;-63
2023/08/24 01:10:10;;;;;;;6.00;4.10;;;;;;;15.49;100.00;100926.56;695990;28;2134;-63
2023/08/24 01:10:44;;;;;;;6.43;3.83;;;;;;;15.58;100.00;100924.63;696840;28;957;-64
2023/08/24 01:11:18;;;;;;;6.53;3.72;;;;;;;15.62;100.00;100931.56;694978;28;1116;-62
2023/08/24 01:11:51;;;;;;;6.63;3.90;;;;;;;15.61;100.00;100935.97;701735;28;1162;-64
2023/08/24 01:12:32;;;;;;;6.35;3.70;;;;;;;15.60;100.00;100928.09;701672;28;1535;-63
2023/08/24 01:13:08;;;;;;;9.13;3.65;;;;;;;15.58;100.00;100927.28;699508;28;6128;-63
2023/08/24 01:13:43;;;;;;;6.22;3.65;;;;;;;15.55;100.00;100930.84;700277;28;1162;-63
2023/08/24 01:14:37;;;;;;;5.60;3.88;;;;;;;15.54;100.00;100923.81;702159;28;1202;-63
2023/08/24 01:15:17;;;;;;;5.78;3.75;;;;;;;15.51;100.00;100929.16;702645;28;1896;-63
2023/08/24 01:15:54;;;;;;;6.78;3.90;;;;;;;15.47;100.00;100928.34;701663;28;4334;-63
2023/08/24 01:16:20;;;;;;;7.25;4.10;;;;;;;15.46;100.00;100933.66;702461;28;1808;-63
2023/08/24 01:16:44;;;;;;;5.88;3.95;;;;;;;15.45;100.00;100924.91;701733;28;1193;-64
2023/08/24 01:17:09;;;;;;;5.95;3.88;;;;;;;15.46;100.00;100925.75;701536;28;2068;-63
2023/08/24 01:17:32;;;;;;;6.28;3.90;;;;;;;15.54;100.00;100931.72;698349;28;1282;-64
2023/08/24 01:18:00;;;;;;;6.38;3.72;;;;;;;15.64;100.00;100935.88;698254;28;1132;-63
2023/08/24 01:18:23;;;;;;;6.40;3.90;;;;;;;15.61;100.00;100925.41;693987;28;2552;-63
2023/08/24 01:18:50;;;;;;;7.60;3.90;;;;;;;15.59;100.00;100929.88;698238;28;4393;-63
2023/08/24 01:19:25;;;;;;;5.95;3.92;;;;;;;15.55;100.00;100929.94;699927;28;2488;-64
2023/08/24 01:19:46;;;;;;;5.25;3.70;;;;;;;15.52;100.00;100925.63;698373;28;1162;-63
2023/08/24 01:20:09;;;;;;;7.22;4.05;;;;;;;15.51;100.00;100926.53;698438;28;1083;-63
2023/08/24 01:20:33;;;;;;;8.32;4.20;;;;;;;15.52;100.00;100928.28;696120;28;1337;-63
2023/08/24 01:20:54;;;;;;;6.72;3.80;;;;;;;15.53;100.00;100926.50;697731;28;1198;-63
2023/08/24 01:21:15;;;;;;;6.80;3.80;;;;;;;15.54;100.00;100921.19;699357;28;982;-63
2023/08/24 01:21:36;;;;;;;5.40;3.60;;;;;;;15.54;100.00;100925.59;699732;28;4476;-62
2023/08/24 01:22:02;;;;;;;5.10;3.60;;;;;;;15.50;100.00;100916.88;701023;28;1961;-63
2023/08/24 01:22:37;;;;;;;6.10;3.88;;;;;;;15.50;100.00;100919.50;703580;27;1485;-63
2023/08/24 01:23:03;;;;;;;5.55;3.90;;;;;;;15.50;100.00;100923.00;701859;28;1582;-63
2023/08/24 01:23:33;;;;;;;6.10;3.72;;;;;;;15.52;100.00;100925.63;700618;28;2266;-63
2023/08/24 01:24:00;;;;;;;6.70;3.88;;;;;;;15.52;100.00;100920.38;700918;28;1198;-64
2023/08/24 01:24:53;;;;;;;7.00;3.97;;;;;;;15.53;100.00;100922.09;700486;28;2752;-63
2023/08/24 01:25:36;;;;;;;6.80;3.90;;;;;;;15.54;100.00;100923.81;700495;28;5066;-62
2023/08/24 01:26:16;;;;;;;8.45;3.95;;;;;;;15.54;100.00;100923.81;699368;28;1047;-63
2023/08/24 01:26:37;;;;;;;6.22;3.88;;;;;;;15.54;100.00;100922.97;697461;28;2185;-63
2023/08/24 01:27:00;;;;;;;6.53;3.80;;;;;;;15.53;100.00;100922.09;698256;28;1162;-63
2023/08/24 01:27:22;;;;;;;5.75;3.90;;;;;;;15.54;100.00;100929.09;696404;28;2336;-63
2023/08/24 01:27:43;;;;;;;5.82;3.80;;;;;;;15.56;100.00;100927.31;701622;28;4479;-62
2023/08/24 01:28:05;;;;;;;7.75;4.00;;;;;;;15.57;100.00;100922.91;699069;28;1154;-63
2023/08/24 01:28:26;;;;;;;6.65;3.72;;;;;;;15.56;100.00;100927.31;703044;27;1161;-63
2023/08/24 01:28:47;;;;;;;6.13;4.00;;;;;;;15.57;100.00;100925.53;702062;28;1344;-64
2023/08/24 01:29:08;;;;;;;6.87;4.10;;;;;;;15.56;100.00;100924.69;703281;28;1277;-63
2023/08/24 01:29:29;;;;;;;6.40;3.90;;;;;;;15.55;100.00;100929.94;702847;28;1110;-63
2023/08/24 01:29:52;;;;;;;6.20;3.78;;;;;;;15.54;100.00;100930.88;704805;27;1146;-63
2023/08/24 01:30:13;;;;;;;6.15;3.95;;;;;;;15.51;100.00;100929.16;701676;28;2938;-63
2023/08/24 01:30:37;;;;;;;5.35;3.90;;;;;;;15.47;100.00;100932.75;700595;28;4553;-64
2023/08/24 01:30:59;;;;;;;6.28;3.95;;;;;;;15.45;100.00;100931.91;700157;28;1394;-63
2023/08/24 01:31:21;;;;;;;6.82;3.97;;;;;;;15.44;100.00;100933.69;697512;28;1686;-63
2023/08/24 01:31:42;;;;;;;6.82;4.30;;;;;;;15.47;100.00;100935.41;700665;28;1173;-63
2023/08/24 01:32:05;;;;;;;6.53;4.22;;;;;;;15.50;100.00;100930.06;700270;28;1594;-63
2023/08/24 01:32:26;;;;;;;7.18;4.10;;;;;;;15.50;100.00;100924.78;700137;28;1622;-62
2023/08/24 01:32:46;;;;;;;6.75;3.97;;;;;;;15.51;100.00;100931.81;701624;28;1363;-62
2023/08/24 01:33:11;;;;;;;6.13;4.00;;;;;;;15.50;100.00;100925.66;702915;28;1264;-63
2023/08/24 01:33:32;;;;;;;6.65;4.00;;;;;;;15.48;100.00;100927.47;703585;28;1194;-63
2023/08/24 01:33:52;;;;;;;8.15;3.90;;;;;;;15.47;100.00;100924.84;700031;28;4297;-63
2023/08/24 01:34:13;;;;;;;7.07;3.97;;;;;;;15.48;100.00;100929.25;700338;28;2329;-63
2023/08/24 01:34:36;;;;;;;6.43;3.92;;;;;;;15.51;100.00;100929.16;701293;28;1272;-63
2023/08/24 01:34:56;;;;;;;6.53;3.90;;;;;;;15.49;100.00;100925.69;701127;28;1363;-63
2023/08/24 01:35:17;;;;;;;6.60;3.90;;;;;;;15.48;100.00;100930.09;697652;28;2332;-64
2023/08/24 01:35:38;;;;;;;6.68;3.95;;;;;;;15.48;100.00;100929.25;695705;28;1234;-63
2023/08/24 01:35:58;;;;;;;6.47;4.10;;;;;;;15.48;100.00;100918.69;696215;28;1159;-63
2023/08/24 01:36:21;;;;;;;6.07;3.95;;;;;;;15.47;100.00;100922.22;697564;28;1716;-63
2023/08/24 01:36:44;;;;;;;6.10;4.03;;;;;;;15.47;100.00;100924.84;698344;28;4394;-63
2023/08/24 01:37:07;;;;;;;6.35;4.00;;;;;;;15.42;100.00;100919.66;702464;28;1364;-63
2023/08/24 01:37:28;;;;;;;6.38;3.83;;;;;;;15.42;100.00;100929.34;702512;28;2313;-63
2023/08/24 01:37:49;;;;;;;7.30;4.00;;;;;;;15.43;100.00;100923.19;702659;28;1284;-63
2023/08/24 01:38:12;;;;;;;6.87;3.97;;;;;;;15.45;100.00;100926.63;702788;28;1054;-64
2023/08/24 01:38:33;;;;;;;5.80;4.00;;;;;;;15.45;100.00;100927.53;703240;28;5233;-64
2023/08/24 01:39:11;;;;;;;6.70;3.80;;;;;;;15.45;100.00;100929.28;701120;28;1182;-63
2023/08/24 01:39:44;;;;;;;7.60;4.22;;;;;;;15.46;100.00;100925.75;697317;28;1235;-63
2023/08/24 01:40:16;;;;;;;5.80;4.30;;;;;;;15.47;100.00;100928.34;694154;28;7455;-63
2023/08/24 01:41:10;;;;;;;7.15;4.32;;;;;;;15.47;100.00;100922.22;700501;28;1479;-63
2023/08/24 01:41:37;;;;;;;5.97;3.92;;;;;;;15.46;100.00;100934.50;695671;27;1994;-62
2023/08/24 01:42:01;;;;;;;7.60;4.13;;;;;;;15.46;100.00;100929.25;699808;28;1909;-64
2023/08/24 01:42:27;;;;;;;5.28;3.72;;;;;;;15.46;100.00;100925.75;699514;28;1560;-63
2023/08/24 01:42:59;;;;;;;6.90;3.90;;;;;;;15.46;100.00;100936.28;698896;28;4404;-63
2023/08/24 01:43:25;;;;;;;6.15;3.85;;;;;;;15.42;100.00;100935.47;699753;28;1769;-63
2023/08/24 01:43:51;;;;;;;6.15;3.85;;;;;;;15.43;100.00;100931.09;704642;27;1334;-63
2023/08/24 01:44:18;;;;;;;6.00;3.80;;;;;;;15.43;100.00;100925.81;706913;27;1868;-63
2023/08/24 01:44:42;;;;;;;7.03;4.05;;;;;;;15.42;100.00;100924.94;707299;27;1231;-63
2023/08/24 01:45:07;;;;;;;7.25;4.13;;;;;;;15.45;100.00;100926.63;699317;28;1225;-63
2023/08/24 01:45:30;;;;;;;6.43;4.00;;;;;;;15.45;100.00;100924.91;699033;28;1689;-63
2023/08/24 01:45:53;;;;;;;6.05;4.07;;;;;;;15.45;100.00;100924.00;694467;28;5298;-64
2023/08/24 01:46:17;;;;;;;7.40;4.68;;;;;;;15.41;100.00;100924.97;694728;28;1691;-63
2023/08/24 01:46:39;;;;;;;5.75;3.90;;;;;;;15.41;100.00;100928.50;695602;28;1285;-63
2023/08/24 01:47:03;;;;;;;7.55;4.18;;;;;;;15.42;100.00;100926.72;703102;27;1244;-62
2023/08/24 01:47:25;;;;;;;5.95;4.07;;;;;;;15.42;100.00;100924.09;704539;27;2299;-64
2023/08/24 01:47:48;;;;;;;5.90;4.13;;;;;;;15.41;100.00;100919.69;701304;28;1189;-63